createdAt,value
2023-03-20T00:01:30.849Z,30.33
2023-03-20T00:03:58.090Z,31.57
2023-03-20T00:06:26.659Z,35.67
2023-03-20T00:08:54.917Z,33.57
2023-03-20T00:11:30.491Z,29.83
2023-03-20T00:14:03.328Z,31.10
2023-03-20T00:16:38.347Z,29.37
2023-03-20T00:19:06.455Z,34.50
2023-03-20T00:21:33.036Z,31.50
2023-03-20T00:24:00.434Z,31.77
2023-03-20T00:26:32.741Z,33.83
2023-03-20T00:28:59.397Z,34.97
2023-03-20T00:31:32.457Z,30.40
2023-03-20T00:34:01.745Z,31.13
2023-03-20T00:36:28.596Z,33.40
2023-03-20T00:38:57.701Z,28.20
2023-03-20T00:41:26.589Z,32.70
2023-03-20T00:43:58.006Z,31.20
2023-03-20T00:46:25.002Z,31.90
2023-03-20T00:48:52.654Z,32.37
2023-03-20T00:51:19.473Z,30.10
2023-03-20T00:53:46.044Z,34.93
2023-03-20T00:56:32.700Z,26.80
2023-03-20T00:59:01.905Z,26.07
2023-03-20T01:01:29.359Z,20.47
2023-03-20T01:03:55.976Z,24.23
2023-03-20T01:06:22.703Z,23.73
2023-03-20T01:08:49.340Z,22.70
2023-03-20T01:11:23.137Z,20.03
2023-03-20T01:13:52.344Z,23.40
2023-03-20T01:16:25.519Z,23.13
2023-03-20T01:18:52.683Z,22.80
2023-03-20T01:21:20.594Z,23.30
2023-03-20T01:23:48.805Z,19.07
2023-03-20T01:26:31.754Z,24.90
2023-03-20T01:28:58.278Z,25.47
2023-03-20T01:31:25.286Z,24.80
2023-03-20T01:33:52.137Z,20.77
2023-03-20T01:36:22.714Z,20.47
2023-03-20T01:38:55.397Z,19.40
2023-03-20T01:41:23.913Z,21.73
2023-03-20T01:43:50.810Z,21.40
2023-03-20T01:46:31.743Z,19.60
2023-03-20T01:49:09.465Z,19.30
2023-03-20T01:51:37.819Z,21.27
2023-03-20T01:54:25.180Z,15.87
2023-03-20T01:57:14.708Z,17.33
2023-03-20T01:59:46.718Z,17.87
2023-03-20T02:02:18.601Z,17.03
2023-03-20T02:04:49.190Z,20.13
2023-03-20T02:07:18.823Z,20.03
2023-03-20T02:09:47.939Z,18.23
2023-03-20T02:12:15.508Z,21.20
2023-03-20T02:14:43.054Z,21.43
2023-03-20T02:17:10.524Z,24.97
2023-03-20T02:20:09.808Z,21.07
2023-03-20T02:23:01.189Z,21.43
2023-03-20T02:25:53.710Z,21.97
2023-03-20T02:28:52.195Z,22.17
2023-03-20T02:31:42.990Z,27.07
2023-03-20T02:34:32.487Z,24.63
2023-03-20T02:37:39.408Z,26.17
2023-03-20T02:40:21.481Z,27.30
2023-03-20T02:43:12.625Z,29.50
2023-03-20T02:46:01.266Z,31.60
2023-03-20T02:48:46.326Z,28.93
2023-03-20T02:51:28.131Z,26.77
2023-03-20T02:54:25.539Z,32.57
2023-03-20T02:57:20.557Z,31.43
2023-03-20T03:00:09.717Z,27.97
2023-03-20T03:02:47.142Z,32.30
2023-03-20T03:05:20.544Z,27.07
2023-03-20T03:07:50.270Z,27.93
2023-03-20T03:10:29.683Z,32.33
2023-03-20T03:12:58.636Z,30.80
2023-03-20T03:15:40.085Z,32.70
2023-03-20T03:18:11.360Z,31.30
2023-03-20T03:20:39.683Z,33.67
2023-03-20T03:23:07.317Z,34.13
2023-03-20T03:25:39.785Z,33.40
2023-03-20T03:28:31.522Z,29.70
2023-03-20T03:30:58.872Z,33.37
2023-03-20T03:33:29.616Z,35.07
2023-03-20T03:36:06.797Z,36.30
2023-03-20T03:38:44.498Z,38.60
2023-03-20T03:41:22.908Z,39.50
2023-03-20T03:43:57.005Z,43.37
2023-03-20T03:46:37.090Z,42.27
2023-03-20T03:49:05.439Z,43.23
2023-03-20T03:51:34.930Z,37.90
2023-03-20T03:54:08.735Z,36.13
2023-03-20T03:56:38.536Z,34.40
2023-03-20T03:59:22.963Z,38.97
2023-03-20T04:01:51.703Z,35.87
2023-03-20T04:04:20.823Z,33.47
2023-03-20T04:06:47.592Z,34.83
2023-03-20T04:09:14.135Z,31.73
2023-03-20T04:11:40.991Z,32.03
2023-03-20T04:14:07.781Z,30.77
2023-03-20T04:16:34.390Z,32.43
2023-03-20T04:19:00.937Z,34.50
2023-03-20T04:21:27.505Z,36.33
2023-03-20T04:23:54.037Z,30.47
2023-03-20T04:26:21.963Z,30.60
2023-03-20T04:28:48.483Z,29.23
2023-03-20T04:31:15.212Z,29.77
2023-03-20T04:33:41.927Z,31.37
2023-03-20T04:36:09.287Z,30.03
2023-03-20T04:38:36.344Z,27.30
2023-03-20T04:41:03.584Z,25.77
2023-03-20T04:43:30.463Z,26.03
2023-03-20T04:45:57.151Z,28.47
2023-03-20T04:48:24.235Z,31.07
2023-03-20T04:50:50.885Z,30.50
2023-03-20T04:53:18.297Z,37.17
2023-03-20T04:55:45.882Z,31.73
2023-03-20T04:58:12.539Z,25.37
2023-03-20T05:00:39.115Z,26.17
2023-03-20T05:03:05.621Z,33.40
2023-03-20T05:05:33.318Z,30.57
2023-03-20T05:07:59.987Z,28.33
2023-03-20T05:10:26.762Z,34.73
2023-03-20T05:12:53.256Z,26.43
2023-03-20T05:15:19.770Z,25.57
2023-03-20T05:17:46.253Z,25.03
2023-03-20T05:20:13.011Z,28.87
2023-03-20T05:22:39.606Z,27.00
2023-03-20T05:25:06.942Z,22.83
2023-03-20T05:27:33.444Z,26.60
2023-03-20T05:30:00.229Z,25.10
2023-03-20T05:32:26.941Z,28.23
2023-03-20T05:34:53.445Z,25.30
2023-03-20T05:37:19.941Z,24.13
2023-03-20T05:39:46.557Z,24.47
2023-03-20T05:42:13.109Z,21.97
2023-03-20T05:44:39.726Z,21.53
2023-03-20T05:47:06.499Z,26.80
2023-03-20T05:49:33.035Z,20.87
2023-03-20T05:51:59.743Z,27.97
2023-03-20T05:54:26.341Z,26.73
2023-03-20T05:56:52.903Z,31.33
2023-03-20T05:59:19.522Z,26.47
2023-03-20T06:01:46.400Z,24.53
2023-03-20T06:04:12.937Z,26.70
2023-03-20T06:06:39.452Z,22.13
2023-03-20T06:09:06.121Z,23.40
2023-03-20T06:11:34.020Z,23.17
2023-03-20T06:14:02.160Z,21.93
2023-03-20T06:16:28.864Z,21.03
2023-03-20T06:18:55.540Z,23.37
2023-03-20T06:21:22.069Z,21.77
2023-03-20T06:23:48.596Z,20.37
2023-03-20T06:26:15.587Z,30.30
2023-03-20T06:28:42.463Z,19.80
2023-03-20T06:31:09.824Z,19.13
2023-03-20T06:33:36.387Z,20.37
2023-03-20T06:36:03.404Z,24.80
2023-03-20T06:38:30.009Z,21.47
2023-03-20T06:40:56.531Z,21.23
2023-03-20T06:43:23.092Z,18.73
2023-03-20T06:45:49.662Z,19.60
2023-03-20T06:48:21.827Z,16.47
2023-03-20T06:50:52.579Z,18.23
2023-03-20T06:53:19.248Z,23.00
2023-03-20T06:55:50.550Z,19.87
2023-03-20T06:58:17.514Z,18.47
2023-03-20T07:00:44.317Z,15.07
2023-03-20T07:03:11.614Z,14.73
2023-03-20T07:05:40.141Z,17.20
2023-03-20T07:08:07.553Z,20.60
2023-03-20T07:10:35.063Z,18.10
2023-03-20T07:13:01.772Z,14.83
2023-03-20T07:15:29.877Z,16.50
2023-03-20T07:17:56.426Z,19.77
2023-03-20T07:20:23.024Z,14.23
2023-03-20T07:22:49.681Z,18.80
2023-03-20T07:25:16.617Z,17.10
2023-03-20T07:27:46.473Z,18.63
2023-03-20T07:30:13.640Z,14.93
2023-03-20T07:32:40.692Z,14.33
2023-03-20T07:35:07.556Z,18.53
2023-03-20T07:37:34.619Z,14.77
2023-03-20T07:40:01.306Z,16.60
2023-03-20T07:42:27.786Z,18.63
2023-03-20T07:44:54.298Z,15.97
2023-03-20T07:47:21.023Z,15.40
2023-03-20T07:49:48.099Z,15.03
2023-03-20T07:52:14.769Z,16.13
2023-03-20T07:54:41.277Z,17.13
2023-03-20T07:57:07.860Z,19.50
2023-03-20T07:59:34.431Z,13.80
2023-03-20T08:02:01.114Z,19.53
2023-03-20T08:04:27.731Z,14.27
2023-03-20T08:06:54.467Z,17.00
2023-03-20T08:09:21.109Z,12.83
2023-03-20T08:11:47.693Z,13.80
2023-03-20T08:14:14.262Z,16.70
2023-03-20T08:16:40.820Z,13.87
2023-03-20T08:19:07.393Z,14.87
2023-03-20T08:21:33.963Z,16.57
2023-03-20T08:24:00.637Z,15.83
2023-03-20T08:26:27.313Z,13.93
2023-03-20T08:28:53.818Z,17.23
2023-03-20T08:31:20.527Z,12.13
2023-03-20T08:33:47.425Z,16.33
2023-03-20T08:36:15.931Z,15.10
2023-03-20T08:38:43.617Z,17.10
2023-03-20T08:41:10.176Z,12.40
2023-03-20T08:43:36.927Z,12.63
2023-03-20T08:46:04.253Z,14.13
2023-03-20T08:48:31.158Z,15.87
2023-03-20T08:50:57.709Z,10.27
2023-03-20T08:53:24.279Z,15.97
2023-03-20T08:55:52.194Z,12.50
2023-03-20T08:58:20.156Z,12.97
2023-03-20T09:00:47.203Z,12.77
2023-03-20T09:03:15.596Z,7.53
2023-03-20T09:05:45.315Z,8.00
2023-03-20T09:08:12.053Z,11.27
2023-03-20T09:10:40.499Z,12.10
2023-03-20T09:13:25.761Z,9.30
2023-03-20T09:15:53.629Z,8.07
2023-03-20T09:18:20.941Z,9.57
2023-03-20T09:20:48.342Z,7.07
2023-03-20T09:23:15.134Z,7.70
2023-03-20T09:25:41.656Z,5.63
2023-03-20T09:28:08.804Z,6.67
2023-03-20T09:30:35.742Z,6.87
2023-03-20T09:33:03.545Z,12.57
2023-03-20T09:35:30.156Z,7.87
2023-03-20T09:37:56.739Z,7.97
2023-03-20T09:41:00.061Z,8.17
2023-03-20T09:43:41.561Z,12.57
2023-03-20T09:46:16.990Z,8.27
2023-03-20T09:48:57.592Z,7.80
2023-03-20T09:51:33.335Z,7.27
2023-03-20T09:54:07.026Z,10.50
2023-03-20T09:56:34.068Z,16.83
2023-03-20T09:59:04.104Z,10.77
2023-03-20T10:01:39.482Z,9.47
2023-03-20T10:04:11.411Z,8.37
2023-03-20T10:06:38.373Z,9.03
2023-03-20T10:09:22.986Z,5.73
2023-03-20T10:12:21.331Z,8.43
2023-03-20T10:15:13.584Z,9.10
2023-03-20T10:18:02.490Z,6.97
2023-03-20T10:20:40.117Z,12.43
2023-03-20T10:23:12.443Z,7.47
2023-03-20T10:25:49.318Z,8.17
2023-03-20T10:28:48.608Z,8.00
2023-03-20T10:31:30.142Z,12.03
2023-03-20T10:34:17.740Z,10.77
2023-03-20T10:36:50.147Z,9.23
2023-03-20T10:39:53.305Z,8.37
2023-03-20T10:42:24.391Z,10.17
2023-03-20T10:45:15.105Z,9.80
2023-03-20T10:47:44.185Z,7.87
2023-03-20T10:50:19.340Z,8.77
2023-03-20T10:52:49.367Z,11.47
2023-03-20T10:55:23.129Z,8.37
2023-03-20T10:57:57.795Z,13.77
2023-03-20T11:00:26.120Z,14.60
2023-03-20T11:02:52.905Z,7.30
2023-03-20T11:05:32.774Z,9.70
2023-03-20T11:08:08.703Z,7.17
2023-03-20T11:10:37.435Z,11.63
2023-03-20T11:13:24.980Z,7.77
2023-03-20T11:15:53.463Z,8.87
2023-03-20T11:18:20.639Z,8.97
2023-03-20T11:20:53.180Z,8.43
2023-03-20T11:23:33.159Z,10.60
2023-03-20T11:26:05.920Z,11.30
2023-03-20T11:28:41.730Z,8.93
2023-03-20T11:31:11.372Z,7.40
2023-03-20T11:33:57.916Z,6.63
2023-03-20T11:36:30.027Z,7.90
2023-03-20T11:39:05.823Z,6.43
2023-03-20T11:41:33.177Z,10.60
2023-03-20T11:43:59.907Z,8.63
2023-03-20T11:46:26.666Z,8.20
2023-03-20T11:49:05.851Z,9.03
2023-03-20T11:51:35.130Z,7.17
2023-03-20T11:54:04.202Z,12.43
2023-03-20T11:56:33.143Z,10.50
2023-03-20T11:59:04.212Z,11.93
2023-03-20T12:01:42.052Z,9.63
2023-03-20T12:04:25.858Z,6.53
2023-03-20T12:07:14.235Z,9.70
2023-03-20T12:09:50.121Z,9.53
2023-03-20T12:12:27.703Z,10.20
2023-03-20T12:15:21.769Z,6.50
2023-03-20T12:18:16.737Z,7.17
2023-03-20T12:21:11.399Z,10.17
2023-03-20T12:23:44.176Z,10.20
2023-03-20T12:26:18.156Z,10.93
2023-03-20T12:28:51.950Z,8.70
2023-03-20T12:31:30.997Z,11.87
2023-03-20T12:34:02.366Z,14.53
2023-03-20T12:36:36.393Z,13.47
2023-03-20T12:39:06.696Z,12.33
2023-03-20T12:42:09.374Z,9.23
2023-03-20T12:44:49.232Z,9.57
2023-03-20T12:47:27.476Z,12.40
2023-03-20T12:50:22.895Z,14.33
2023-03-20T12:53:04.588Z,7.20
2023-03-20T12:55:42.539Z,6.93
2023-03-20T12:58:23.453Z,8.93
2023-03-20T13:01:28.296Z,6.07
2023-03-20T13:04:42.288Z,12.30
2023-03-20T13:07:25.788Z,8.03
2023-03-20T13:10:22.284Z,11.60
2023-03-20T13:13:02.775Z,16.00
2023-03-20T13:15:49.642Z,10.07
2023-03-20T13:18:38.692Z,8.43
2023-03-20T13:21:19.599Z,6.77
2023-03-20T13:23:56.544Z,10.73
2023-03-20T13:27:20.856Z,5.40
2023-03-20T13:30:09.575Z,10.07
2023-03-20T13:33:01.847Z,8.57
2023-03-20T13:35:53.366Z,10.20
2023-03-20T13:38:26.898Z,7.07
2023-03-20T13:41:05.702Z,8.27
2023-03-20T13:43:37.748Z,7.47
2023-03-20T13:46:19.741Z,6.93
2023-03-20T13:48:46.599Z,14.17
2023-03-20T13:51:25.945Z,7.73
2023-03-20T13:54:23.569Z,9.00
2023-03-20T13:56:59.743Z,8.70
2023-03-20T13:59:45.219Z,5.73
2023-03-20T14:02:30.946Z,7.83
2023-03-20T14:05:14.038Z,5.60
2023-03-20T14:07:44.542Z,10.00
2023-03-20T14:10:23.325Z,10.53
2023-03-20T14:12:56.125Z,11.37
2023-03-20T14:15:27.879Z,11.20
2023-03-20T14:17:54.764Z,7.37
2023-03-20T14:20:32.272Z,9.20
2023-03-20T14:22:59.192Z,15.27
2023-03-20T14:25:40.581Z,15.47
2023-03-20T14:28:13.408Z,7.93
2023-03-20T14:30:48.880Z,9.13
2023-03-20T14:33:15.823Z,10.93
2023-03-20T14:35:51.269Z,6.23
2023-03-20T14:38:21.000Z,9.43
2023-03-20T14:41:19.628Z,10.20
2023-03-20T14:44:03.478Z,10.00
2023-03-20T14:46:56.737Z,6.63
2023-03-20T14:49:42.306Z,10.57
2023-03-20T14:52:26.860Z,8.73
2023-03-20T14:54:54.442Z,10.67
2023-03-20T14:57:48.834Z,7.63
2023-03-20T15:00:22.981Z,7.60
2023-03-20T15:02:52.775Z,7.27
2023-03-20T15:05:29.664Z,8.40
2023-03-20T15:08:02.218Z,9.40
2023-03-20T15:10:29.131Z,10.10
2023-03-20T15:12:58.319Z,13.43
2023-03-20T15:15:27.937Z,10.70
2023-03-20T15:17:54.801Z,5.97
2023-03-20T15:20:26.378Z,11.10
2023-03-20T15:23:01.068Z,6.60
2023-03-20T15:25:39.513Z,8.37
2023-03-20T15:28:07.941Z,10.53
2023-03-20T15:30:39.273Z,10.40
2023-03-20T15:33:07.911Z,7.27
2023-03-20T15:35:34.610Z,9.43
2023-03-20T15:38:07.322Z,9.43
2023-03-20T15:40:50.005Z,12.13
2023-03-20T15:43:21.746Z,11.67
2023-03-20T15:45:49.701Z,11.63
2023-03-20T15:48:18.861Z,10.60
2023-03-20T15:50:58.612Z,8.07
2023-03-20T15:53:37.542Z,9.27
2023-03-20T15:56:17.292Z,14.40
2023-03-20T15:58:46.621Z,11.23
2023-03-20T16:01:22.006Z,14.90
2023-03-20T16:03:49.795Z,11.83
2023-03-20T16:06:21.508Z,9.70
2023-03-20T16:09:09.103Z,11.30
2023-03-20T16:11:38.790Z,12.53
2023-03-20T16:14:07.852Z,12.50
2023-03-20T16:16:37.301Z,6.53
2023-03-20T16:19:07.771Z,8.47
2023-03-20T16:21:39.042Z,10.03
2023-03-20T16:24:09.094Z,7.40
2023-03-20T16:26:39.913Z,6.97
2023-03-20T16:29:07.707Z,8.80
2023-03-20T16:31:36.388Z,12.27
2023-03-20T16:34:09.189Z,18.37
2023-03-20T16:36:38.200Z,85.20
2023-03-20T16:39:20.378Z,81.10
2023-03-20T16:41:51.985Z,93.30
2023-03-20T16:44:23.208Z,49.87
2023-03-20T16:47:19.912Z,85.07
2023-03-20T16:49:55.392Z,91.27
2023-03-20T16:52:28.742Z,251.70
2023-03-20T16:54:59.211Z,91.60
2023-03-20T16:57:27.280Z,85.07
2023-03-20T17:00:00.860Z,150.07
2023-03-20T17:02:36.830Z,108.70
2023-03-20T17:05:06.744Z,233.73
2023-03-20T17:07:33.321Z,316.30
2023-03-20T17:10:16.396Z,98.27
2023-03-20T17:12:45.472Z,74.60
2023-03-20T17:15:23.777Z,34.90
2023-03-20T17:17:50.804Z,51.83
2023-03-20T17:20:24.332Z,32.20
2023-03-20T17:22:51.076Z,52.30
2023-03-20T17:25:18.034Z,173.80
2023-03-20T17:27:45.188Z,200.83
2023-03-20T17:30:19.539Z,246.80
2023-03-20T17:32:46.257Z,18.08
2023-03-20T17:35:13.129Z,21.13
2023-03-20T17:37:40.295Z,287.73
2023-03-20T17:40:07.762Z,184.30
2023-03-20T17:42:34.390Z,222.80
2023-03-20T17:45:03.430Z,176.13
2023-03-20T17:47:30.465Z,70.13
2023-03-20T17:49:57.438Z,30.13
2023-03-20T17:52:27.163Z,18.93
2023-03-20T17:54:54.632Z,13.13
2023-03-20T17:57:45.902Z,14.30
2023-03-20T18:00:19.195Z,15.60
2023-03-20T18:02:46.249Z,14.83
2023-03-20T18:05:12.819Z,13.23
2023-03-20T18:07:39.474Z,10.70
2023-03-20T18:10:06.896Z,10.47
2023-03-20T18:12:34.443Z,14.97
2023-03-20T18:15:01.380Z,15.80
2023-03-20T18:17:28.104Z,13.30
2023-03-20T18:19:54.626Z,16.77
2023-03-20T18:22:21.124Z,18.70
2023-03-20T18:24:47.674Z,16.97
2023-03-20T18:27:14.208Z,16.50
2023-03-20T18:29:40.798Z,13.63
2023-03-20T18:32:07.381Z,14.63
2023-03-20T18:34:33.904Z,13.53
2023-03-20T18:37:01.196Z,15.13
2023-03-20T18:39:27.755Z,7.90
2023-03-20T18:41:54.307Z,11.67
2023-03-20T18:44:20.880Z,11.00
2023-03-20T18:46:47.585Z,10.33
2023-03-20T18:49:16.046Z,12.20
2023-03-20T18:51:42.664Z,13.23
2023-03-20T18:54:09.230Z,11.47
2023-03-20T18:56:37.552Z,9.30
2023-03-20T18:59:07.609Z,10.30
2023-03-20T19:01:35.600Z,13.20
2023-03-20T19:04:02.635Z,12.03
2023-03-20T19:06:32.478Z,11.97
2023-03-20T19:09:05.421Z,13.07
2023-03-20T19:11:32.004Z,12.80
2023-03-20T19:13:58.638Z,11.03
2023-03-20T19:16:31.744Z,12.87
2023-03-20T19:19:01.202Z,11.63
2023-03-20T19:21:32.431Z,11.60
2023-03-20T19:24:01.669Z,13.97
2023-03-20T19:26:30.482Z,14.63
2023-03-20T19:28:58.575Z,15.77
2023-03-20T19:31:26.137Z,15.23
2023-03-20T19:33:53.375Z,12.50
2023-03-20T19:36:27.751Z,13.30
2023-03-20T19:38:56.169Z,14.23
2023-03-20T19:41:22.842Z,13.07
2023-03-20T19:43:53.483Z,10.13
2023-03-20T19:46:38.761Z,8.07
2023-03-20T19:49:06.812Z,12.57
2023-03-20T19:51:33.600Z,10.17
2023-03-20T19:54:00.170Z,11.87
2023-03-20T19:56:26.996Z,12.60
2023-03-20T19:58:53.687Z,14.10
2023-03-20T20:01:23.585Z,14.63
2023-03-20T20:03:51.038Z,157.93
2023-03-20T20:06:20.129Z,9.63
2023-03-20T20:08:49.553Z,12.50
2023-03-20T20:11:18.769Z,14.57
2023-03-20T20:14:04.723Z,12.33
2023-03-20T20:16:33.268Z,10.57
2023-03-20T20:19:00.296Z,17.73
2023-03-20T20:24:15.889Z,13.80
2023-03-20T20:26:53.308Z,16.70
2023-03-20T20:29:22.351Z,11.63
2023-03-20T20:31:48.978Z,13.23
2023-03-20T20:35:15.217Z,18.00
2023-03-20T20:37:47.530Z,15.73
2023-03-20T20:39:50.102Z,12.17
2023-03-20T20:42:17.503Z,10.60
2023-03-20T20:44:44.484Z,9.97
2023-03-20T20:47:11.793Z,13.00
2023-03-20T20:49:38.378Z,12.37
2023-03-20T20:52:05.589Z,12.90
2023-03-20T20:54:33.916Z,15.17
2023-03-20T20:57:01.207Z,12.00
2023-03-20T20:59:27.862Z,15.17
2023-03-20T21:01:54.585Z,13.93
2023-03-20T21:04:21.378Z,12.90
2023-03-20T21:07:08.827Z,13.80
2023-03-20T21:09:34.489Z,17.17
2023-03-20T21:12:02.612Z,18.20
2023-03-20T21:14:29.956Z,13.03
2023-03-20T21:17:00.658Z,15.13
2023-03-20T21:19:29.626Z,17.40
2023-03-20T21:21:56.459Z,15.47
2023-03-20T21:24:32.020Z,12.47
2023-03-20T21:26:59.858Z,17.53
2023-03-20T21:29:26.674Z,17.83
2023-03-20T21:31:53.416Z,15.17
2023-03-20T21:34:20.016Z,15.97
2023-03-20T21:36:48.977Z,12.93
2023-03-20T21:39:16.981Z,17.90
2023-03-20T21:41:43.952Z,15.57
2023-03-20T21:44:17.239Z,14.93
2023-03-20T21:47:29.464Z,15.00
2023-03-20T21:50:25.811Z,16.37
2023-03-20T22:04:01.748Z,19.23
2023-03-20T22:09:58.368Z,15.90
2023-03-20T22:12:28.228Z,16.03
2023-03-20T22:17:59.658Z,13.43
2023-03-20T22:26:36.352Z,15.00
2023-03-20T22:31:53.677Z,15.60
2023-03-20T22:40:18.545Z,14.33
2023-03-20T22:42:51.387Z,13.13
2023-03-20T22:45:12.114Z,14.80
2023-03-20T22:47:39.030Z,15.27
2023-03-20T22:50:06.125Z,16.43
2023-03-20T22:52:45.883Z,14.40
2023-03-20T22:55:15.153Z,11.97
2023-03-20T22:57:50.166Z,14.43
2023-03-20T23:00:27.085Z,18.50
2023-03-20T23:02:57.391Z,16.37
2023-03-20T23:05:24.027Z,13.77
2023-03-20T23:07:50.567Z,16.37
2023-03-20T23:10:17.258Z,19.00
2023-03-20T23:12:44.358Z,23.17
2023-03-20T23:15:11.394Z,16.43
2023-03-20T23:17:37.970Z,16.07
2023-03-20T23:20:12.226Z,14.13
2023-03-20T23:22:40.502Z,14.73
2023-03-20T23:25:23.941Z,15.60
2023-03-20T23:27:54.616Z,17.57
2023-03-20T23:30:23.386Z,12.90
2023-03-20T23:32:51.778Z,14.83
2023-03-20T23:35:18.532Z,14.27
2023-03-20T23:37:45.124Z,17.00
2023-03-20T23:40:12.193Z,13.70
2023-03-20T23:42:38.716Z,19.73
2023-03-20T23:45:19.170Z,13.40
2023-03-20T23:47:47.991Z,15.63
2023-03-20T23:50:26.459Z,16.67
2023-03-20T23:53:03.680Z,15.17
2023-03-20T23:55:36.251Z,14.70
2023-03-20T23:58:03.177Z,13.10
